createdAt,value
2019-04-05T00:00:24.856Z,97.70
2019-04-05T00:03:07.306Z,97.80
2019-04-05T00:05:49.096Z,97.80
2019-04-05T00:08:30.958Z,97.70
2019-04-05T00:11:13.232Z,97.70
2019-04-05T00:13:55.551Z,97.70
2019-04-05T00:16:37.967Z,98.00
2019-04-05T00:19:19.717Z,97.90
2019-04-05T00:22:03.251Z,97.90
2019-04-05T00:24:45.699Z,97.80
2019-04-05T00:27:27.803Z,97.80
2019-04-05T00:30:10.066Z,97.80
2019-04-05T00:32:52.754Z,97.80
2019-04-05T00:35:34.717Z,97.80
2019-04-05T00:38:16.682Z,97.80
2019-04-05T00:40:58.864Z,97.90
2019-04-05T00:43:40.752Z,97.80
2019-04-05T00:46:22.860Z,97.80
2019-04-05T00:49:04.799Z,97.90
2019-04-05T00:51:46.452Z,97.90
2019-04-05T00:54:28.451Z,97.90
2019-04-05T00:57:10.410Z,97.90
2019-04-05T00:59:52.418Z,97.90
2019-04-05T01:02:34.546Z,97.90
2019-04-05T01:05:16.491Z,97.90
2019-04-05T01:07:58.462Z,97.80
2019-04-05T01:10:40.685Z,97.90
2019-04-05T01:13:22.718Z,97.90
2019-04-05T01:16:04.558Z,97.90
2019-04-05T01:18:46.387Z,97.90
2019-04-05T01:21:28.733Z,97.90
2019-04-05T01:24:11.134Z,98.00
2019-04-05T01:26:53.178Z,97.90
2019-04-05T01:29:36.207Z,98.30
2019-04-05T01:32:18.560Z,98.70
2019-04-05T01:35:00.479Z,99.20
2019-04-05T01:37:42.559Z,99.50
2019-04-05T01:40:24.247Z,99.90
2019-04-05T01:43:06.400Z,99.90
2019-04-05T01:45:54.091Z,99.90
2019-04-05T01:48:32.810Z,99.90
2019-04-05T01:51:14.671Z,99.90
2019-04-05T01:53:56.738Z,99.90
2019-04-05T01:56:38.651Z,99.90
2019-04-05T01:59:20.471Z,99.90
2019-04-05T02:02:02.871Z,99.90
2019-04-05T02:04:44.983Z,99.90
2019-04-05T02:07:26.793Z,99.90
2019-04-05T02:10:09.296Z,99.90
2019-04-05T02:12:51.205Z,99.90
2019-04-05T02:15:33.530Z,99.90
2019-04-05T02:18:15.710Z,99.90
2019-04-05T02:20:57.686Z,99.90
2019-04-05T02:23:39.695Z,99.90
2019-04-05T02:26:22.070Z,99.90
2019-04-05T02:29:04.010Z,99.90
2019-04-05T02:31:45.918Z,99.90
2019-04-05T02:34:27.988Z,99.90
2019-04-05T02:37:10.048Z,99.90
2019-04-05T02:39:51.977Z,99.90
2019-04-05T02:42:34.195Z,99.90
2019-04-05T02:45:16.483Z,99.90
2019-04-05T02:47:58.970Z,99.90
2019-04-05T02:50:40.934Z,99.90
2019-04-05T02:53:23.441Z,99.90
2019-04-05T02:56:05.569Z,99.90
2019-04-05T02:58:47.517Z,99.90
2019-04-05T03:01:29.856Z,99.90
2019-04-05T03:04:11.862Z,99.90
2019-04-05T03:06:53.997Z,99.90
2019-04-05T03:09:36.141Z,99.90
2019-04-05T03:12:19.211Z,99.90
2019-04-05T03:15:01.303Z,99.90
2019-04-05T03:17:43.201Z,99.90
2019-04-05T03:20:25.408Z,99.90
2019-04-05T03:23:07.714Z,99.90
2019-04-05T03:25:49.985Z,99.90
2019-04-05T03:28:31.880Z,99.90
2019-04-05T03:31:14.181Z,99.90
2019-04-05T03:33:55.857Z,99.90
2019-04-05T03:36:37.788Z,99.90
2019-04-05T03:39:19.785Z,99.90
2019-04-05T03:42:02.157Z,99.90
2019-04-05T03:44:43.992Z,99.90
2019-04-05T03:47:26.138Z,99.90
2019-04-05T03:50:08.703Z,99.90
2019-04-05T03:52:51.163Z,99.90
2019-04-05T03:55:33.817Z,99.90
2019-04-05T03:58:15.841Z,99.90
2019-04-05T04:00:57.577Z,99.90
2019-04-05T04:03:39.752Z,99.90
2019-04-05T04:06:21.805Z,99.90
2019-04-05T04:09:05.193Z,99.90
2019-04-05T04:11:47.786Z,99.90
2019-04-05T04:14:29.786Z,99.90
2019-04-05T04:17:13.513Z,99.90
2019-04-05T04:19:56.346Z,99.90
2019-04-05T04:22:38.538Z,99.90
2019-04-05T04:25:20.548Z,99.90
2019-04-05T04:28:02.771Z,99.90
2019-04-05T04:30:44.965Z,99.90
2019-04-05T04:33:26.806Z,99.90
2019-04-05T04:36:09.162Z,99.90
2019-04-05T04:38:52.752Z,99.90
2019-04-05T04:41:35.191Z,99.90
2019-04-05T04:44:17.100Z,99.90
2019-04-05T04:46:59.055Z,99.90
2019-04-05T04:49:41.225Z,99.90
2019-04-05T04:52:23.168Z,99.90
2019-04-05T04:55:05.398Z,99.90
2019-04-05T04:57:47.538Z,99.90
2019-04-05T05:00:30.131Z,99.90
2019-04-05T05:03:11.915Z,99.90
2019-04-05T05:05:53.886Z,99.90
2019-04-05T05:08:36.561Z,99.90
2019-04-05T05:11:19.146Z,99.90
2019-04-05T05:14:01.575Z,99.90
2019-04-05T05:16:43.408Z,99.90
2019-04-05T05:19:25.939Z,99.90
2019-04-05T05:22:07.815Z,99.90
2019-04-05T05:24:50.362Z,99.90
2019-04-05T05:27:32.239Z,99.90
2019-04-05T05:30:15.868Z,99.90
2019-04-05T05:32:57.990Z,99.90
2019-04-05T05:35:40.755Z,99.90
2019-04-05T05:38:22.598Z,99.90
2019-04-05T05:41:05.007Z,99.90
2019-04-05T05:43:47.364Z,99.90
2019-04-05T05:46:29.743Z,99.90
2019-04-05T05:49:11.812Z,99.90
2019-04-05T05:51:53.786Z,99.90
2019-04-05T05:54:35.994Z,99.90
2019-04-05T05:57:17.750Z,99.90
2019-04-05T06:00:00.479Z,99.90
2019-04-05T06:02:42.890Z,99.90
2019-04-05T06:05:24.839Z,99.90
2019-04-05T06:08:07.323Z,99.90
2019-04-05T06:10:49.536Z,99.90
2019-04-05T06:13:32.084Z,99.90
2019-04-05T06:16:13.980Z,99.90
2019-04-05T06:18:56.049Z,99.90
2019-04-05T06:21:38.647Z,99.90
2019-04-05T06:24:20.502Z,99.90
2019-04-05T06:27:02.398Z,99.90
2019-04-05T06:29:44.603Z,99.90
2019-04-05T06:32:26.955Z,99.90
2019-04-05T06:35:09.076Z,99.90
2019-04-05T06:37:51.298Z,99.90
2019-04-05T06:40:40.828Z,99.90
2019-04-05T06:43:17.972Z,99.90
2019-04-05T06:46:00.098Z,99.90
2019-04-05T06:48:42.190Z,99.90
2019-04-05T06:51:24.895Z,99.90
2019-04-05T06:54:06.890Z,99.90
2019-04-05T06:56:49.007Z,99.90
2019-04-05T06:59:31.016Z,99.90
2019-04-05T07:02:13.216Z,99.90
2019-04-05T07:04:55.718Z,99.90
2019-04-05T07:07:37.570Z,99.90
2019-04-05T07:10:20.120Z,99.90
2019-04-05T07:13:02.003Z,99.90
2019-04-05T07:15:44.463Z,99.90
2019-04-05T07:18:35.596Z,99.90
2019-04-05T07:21:11.196Z,99.90
2019-04-05T07:23:53.602Z,99.90
2019-04-05T07:26:35.663Z,99.90
2019-04-05T07:29:17.471Z,99.90
2019-04-05T07:31:59.773Z,99.90
2019-04-05T07:34:41.963Z,99.90
2019-04-05T07:37:23.821Z,99.90
2019-04-05T07:40:06.445Z,99.90
2019-04-05T07:42:48.436Z,99.90
2019-04-05T07:45:30.536Z,99.90
2019-04-05T07:48:12.477Z,99.90
2019-04-05T07:50:54.802Z,99.90
2019-04-05T07:53:37.042Z,99.90
2019-04-05T07:56:19.284Z,99.90
2019-04-05T07:59:01.384Z,99.90
2019-04-05T08:01:43.732Z,99.90
2019-04-05T08:04:26.330Z,99.90
2019-04-05T08:07:08.671Z,99.90
2019-04-05T08:09:51.242Z,99.90
2019-04-05T08:12:34.214Z,99.90
2019-04-05T08:15:16.485Z,99.90
2019-04-05T08:17:58.593Z,99.90
2019-04-05T08:20:40.900Z,99.90
2019-04-05T08:23:23.177Z,99.90
2019-04-05T08:26:05.099Z,99.90
2019-04-05T08:28:47.150Z,99.90
2019-04-05T08:31:29.380Z,99.70
2019-04-05T08:34:11.333Z,99.50
2019-04-05T08:36:53.741Z,99.70
2019-04-05T08:39:36.376Z,99.40
2019-04-05T08:42:18.190Z,99.50
2019-04-05T08:45:00.187Z,98.90
2019-04-05T08:47:42.120Z,99.40
2019-04-05T08:50:23.998Z,99.10
2019-04-05T08:53:06.319Z,98.50
2019-04-05T08:55:48.482Z,98.40
2019-04-05T08:58:33.560Z,98.10
2019-04-05T09:01:14.456Z,98.20
2019-04-05T09:03:56.314Z,98.10
2019-04-05T09:06:38.648Z,98.30
2019-04-05T09:09:20.394Z,98.30
2019-04-05T09:12:02.539Z,98.10
2019-04-05T09:14:44.906Z,98.20
2019-04-05T09:17:27.467Z,97.50
2019-04-05T09:20:09.804Z,97.70
2019-04-05T09:22:51.672Z,97.80
2019-04-05T09:25:33.470Z,97.60
2019-04-05T09:28:16.118Z,97.40
2019-04-05T09:30:58.053Z,97.30
2019-04-05T09:33:39.819Z,97.80
2019-04-05T09:36:22.095Z,97.70
2019-04-05T09:39:05.483Z,97.70
2019-04-05T09:41:48.140Z,97.70
2019-04-05T09:44:30.387Z,97.60
2019-04-05T09:47:12.706Z,97.40
2019-04-05T09:49:54.701Z,97.70
2019-04-05T09:52:39.873Z,97.20
2019-04-05T09:55:21.424Z,97.20
2019-04-05T09:58:03.616Z,96.90
2019-04-05T10:00:45.619Z,96.90
2019-04-05T10:03:26.343Z,97.70
2019-04-05T10:06:16.290Z,97.70
2019-04-05T10:12:35.579Z,97.30
2019-04-05T10:19:14.263Z,97.20
2019-04-05T10:22:04.251Z,97.70
2019-04-05T10:25:13.390Z,97.70
2019-04-05T10:31:17.908Z,97.10
2019-04-05T10:34:26.955Z,97.20
2019-04-05T10:37:16.511Z,97.00
2019-04-05T10:40:25.988Z,97.30
2019-04-05T10:53:33.851Z,96.80
2019-04-05T10:56:23.533Z,96.60
2019-04-05T10:59:13.075Z,96.30
2019-04-05T11:02:14.290Z,96.30
2019-04-05T11:04:56.291Z,96.70
2019-04-05T11:07:38.427Z,96.50
2019-04-05T11:10:20.411Z,97.20
2019-04-05T11:13:03.560Z,97.30
2019-04-05T11:15:45.605Z,96.90
2019-04-05T11:18:27.534Z,97.10
2019-04-05T11:21:09.555Z,97.00
2019-04-05T11:23:53.551Z,97.10
2019-04-05T11:26:35.611Z,96.80
2019-04-05T11:29:17.614Z,96.40
2019-04-05T11:31:59.797Z,96.20
2019-04-05T11:34:42.027Z,95.30
2019-04-05T11:37:23.946Z,95.40
2019-04-05T11:40:05.686Z,95.30
2019-04-05T11:42:47.992Z,95.40
2019-04-05T11:45:30.006Z,95.50
2019-04-05T11:48:11.931Z,95.50
2019-04-05T11:50:54.402Z,95.60
2019-04-05T11:53:37.215Z,95.70
2019-04-05T11:56:20.113Z,95.70
2019-04-05T11:59:04.274Z,95.60
2019-04-05T12:02:05.521Z,95.70
2019-04-05T12:04:47.816Z,95.20
2019-04-05T12:07:30.082Z,95.40
2019-04-05T12:10:12.236Z,95.50
2019-04-05T12:12:54.174Z,94.70
2019-04-05T12:15:35.790Z,94.60
2019-04-05T12:18:26.110Z,94.40
2019-04-05T12:24:49.386Z,93.80
2019-04-05T12:31:12.582Z,94.10
2019-04-05T12:37:22.920Z,94.00
2019-04-05T12:40:05.148Z,94.40
2019-04-05T12:49:25.162Z,93.90
2019-04-05T12:58:42.393Z,93.80
2019-04-05T13:08:23.614Z,93.60
2019-04-05T13:14:31.657Z,93.40
2019-04-05T13:17:21.564Z,93.90
2019-04-05T13:20:30.877Z,93.90
2019-04-05T13:23:41.213Z,93.40
2019-04-05T13:29:45.317Z,93.10
2019-04-05T13:32:54.335Z,93.30
2019-04-05T13:35:55.505Z,93.30
2019-04-05T13:38:37.556Z,93.10
2019-04-05T13:41:19.794Z,93.60
2019-04-05T13:44:02.293Z,93.40
2019-04-05T13:46:45.208Z,93.40
2019-04-05T13:49:27.135Z,93.80
2019-04-05T13:52:11.162Z,93.70
2019-04-05T13:54:53.645Z,93.40
2019-04-05T13:57:35.362Z,93.40
2019-04-05T14:00:18.402Z,93.70
2019-04-05T14:03:00.534Z,93.30
2019-04-05T14:05:42.450Z,94.10
2019-04-05T14:08:24.757Z,94.10
2019-04-05T14:11:08.354Z,94.90
2019-04-05T14:13:50.184Z,94.70
2019-04-05T14:16:32.821Z,94.10
2019-04-05T14:19:18.428Z,93.90
2019-04-05T14:22:08.331Z,93.80
2019-04-05T14:24:41.929Z,94.60
2019-04-05T14:27:24.347Z,94.70
2019-04-05T14:30:06.342Z,94.20
2019-04-05T14:32:50.766Z,94.70
2019-04-05T14:35:32.002Z,94.60
2019-04-05T14:38:14.428Z,94.50
2019-04-05T14:40:56.218Z,94.20
2019-04-05T14:43:38.471Z,93.60
2019-04-05T14:46:20.278Z,93.80
2019-04-05T14:49:02.347Z,93.70
2019-04-05T14:51:53.585Z,93.90
2019-04-05T14:54:30.102Z,94.10
2019-04-05T14:57:12.406Z,94.20
2019-04-05T14:59:54.282Z,94.70
2019-04-05T15:02:36.308Z,94.20
2019-04-05T15:05:18.751Z,94.00
2019-04-05T15:08:02.062Z,94.00
2019-04-05T15:10:44.134Z,93.80
2019-04-05T15:13:26.279Z,94.20
2019-04-05T15:16:08.440Z,94.20
2019-04-05T15:18:50.496Z,93.30
2019-04-05T15:21:34.688Z,93.90
2019-04-05T15:24:17.468Z,93.40
2019-04-05T15:26:59.749Z,93.60
2019-04-05T15:29:41.714Z,93.60
2019-04-05T15:32:25.446Z,93.80
2019-04-05T15:35:07.693Z,94.00
2019-04-05T15:37:50.103Z,94.00
2019-04-05T15:40:31.811Z,93.70
2019-04-05T15:43:13.849Z,93.50
2019-04-05T15:45:55.981Z,93.80
2019-04-05T15:48:38.295Z,93.80
2019-04-05T15:51:20.125Z,93.60
2019-04-05T15:54:02.522Z,93.40
2019-04-05T15:56:44.532Z,93.30
2019-04-05T15:59:26.762Z,93.40
2019-04-05T16:02:08.966Z,93.40
2019-04-05T16:04:51.242Z,93.90
2019-04-05T16:07:33.685Z,93.90
2019-04-05T16:10:15.669Z,94.10
2019-04-05T16:12:57.756Z,94.30
2019-04-05T16:15:40.111Z,93.90
2019-04-05T16:18:21.936Z,94.20
2019-04-05T16:21:04.114Z,94.20
2019-04-05T16:23:46.193Z,94.20
2019-04-05T16:26:27.936Z,94.20
2019-04-05T16:29:10.384Z,94.30
2019-04-05T16:31:52.930Z,94.30
2019-04-05T16:34:34.964Z,94.60
2019-04-05T16:37:16.768Z,94.10
2019-04-05T16:39:58.793Z,94.20
2019-04-05T16:42:40.866Z,94.10
2019-04-05T16:45:22.895Z,94.40
2019-04-05T16:48:04.698Z,94.30
2019-04-05T16:50:47.274Z,94.10
2019-04-05T16:53:29.112Z,94.20
2019-04-05T16:56:11.619Z,94.10
2019-04-05T16:58:53.666Z,94.10
2019-04-05T17:01:35.558Z,94.40
2019-04-05T17:04:17.955Z,94.30
2019-04-05T17:07:00.168Z,94.00
2019-04-05T17:09:42.368Z,94.10
2019-04-05T17:12:24.898Z,94.10
2019-04-05T17:15:07.251Z,94.10
2019-04-05T17:17:49.683Z,94.10
2019-04-05T17:20:31.800Z,94.10
2019-04-05T17:23:13.795Z,94.20
2019-04-05T17:25:55.646Z,94.10
2019-04-05T17:28:37.738Z,94.40
2019-04-05T17:31:19.660Z,94.40
2019-04-05T17:34:01.724Z,94.40
2019-04-05T17:36:43.618Z,94.40
2019-04-05T17:39:25.391Z,94.40
2019-04-05T17:42:07.396Z,94.50
2019-04-05T17:44:49.942Z,94.60
2019-04-05T17:47:32.402Z,94.70
2019-04-05T17:50:19.960Z,94.50
2019-04-05T17:53:11.926Z,94.60
2019-04-05T17:55:45.843Z,94.60
2019-04-05T17:58:28.276Z,94.70
2019-04-05T18:01:10.539Z,94.70
2019-04-05T18:03:52.267Z,94.80
2019-04-05T18:06:34.115Z,94.70
2019-04-05T18:09:16.015Z,94.90
2019-04-05T18:11:57.876Z,94.90
2019-04-05T18:14:40.178Z,94.90
2019-04-05T18:17:22.640Z,94.80
2019-04-05T18:20:05.248Z,94.90
2019-04-05T18:22:47.887Z,94.90
2019-04-05T18:25:30.254Z,95.00
2019-04-05T18:28:13.253Z,95.20
2019-04-05T18:30:55.868Z,95.10
2019-04-05T18:33:37.812Z,95.10
2019-04-05T18:36:19.834Z,95.10
2019-04-05T18:39:01.875Z,95.40
2019-04-05T18:41:45.769Z,95.70
2019-04-05T18:44:27.532Z,95.70
2019-04-05T18:47:09.960Z,95.80
2019-04-05T18:50:02.479Z,95.70
2019-04-05T18:52:36.170Z,95.90
2019-04-05T18:55:18.448Z,96.30
2019-04-05T18:58:00.332Z,96.50
2019-04-05T19:00:42.398Z,96.30
2019-04-05T19:03:25.032Z,96.10
2019-04-05T19:06:07.142Z,96.10
2019-04-05T19:08:49.746Z,96.00
2019-04-05T19:11:32.042Z,96.20
2019-04-05T19:14:14.263Z,96.40
2019-04-05T19:16:59.081Z,96.50
2019-04-05T19:19:40.991Z,96.50
2019-04-05T19:22:23.343Z,96.50
2019-04-05T19:25:05.837Z,96.70
2019-04-05T19:27:48.087Z,96.60
2019-04-05T19:49:37.486Z,97.20
2019-04-05T19:52:19.321Z,97.30
2019-04-05T19:55:01.709Z,97.30
2019-04-05T19:57:43.754Z,97.30
2019-04-05T20:00:26.487Z,97.30
2019-04-05T20:03:08.924Z,97.30
2019-04-05T20:05:50.703Z,97.30
2019-04-05T20:08:32.905Z,97.30
2019-04-05T20:11:15.055Z,97.40
2019-04-05T20:13:57.466Z,97.40
2019-04-05T20:16:39.497Z,97.50
2019-04-05T20:19:21.608Z,97.50
2019-04-05T20:22:03.425Z,97.50
2019-04-05T20:24:45.690Z,97.70
2019-04-05T20:27:28.483Z,97.80
2019-04-05T20:30:10.318Z,97.80
2019-04-05T20:32:52.558Z,97.60
2019-04-05T20:35:35.319Z,97.40
2019-04-05T20:38:17.027Z,97.50
2019-04-05T20:40:58.967Z,97.60
2019-04-05T20:43:41.311Z,97.70
2019-04-05T20:46:23.335Z,97.80
2019-04-05T20:49:05.344Z,97.90
2019-04-05T20:51:48.129Z,97.90
2019-04-05T20:54:30.482Z,97.90
2019-04-05T20:57:12.994Z,97.90
2019-04-05T20:59:55.047Z,97.70
2019-04-05T21:02:37.213Z,97.80
2019-04-05T21:05:25.264Z,97.80
2019-04-05T21:08:03.219Z,97.90
2019-04-05T21:10:45.038Z,97.90
2019-04-05T21:13:27.371Z,97.80
2019-04-05T21:16:09.805Z,97.90
2019-04-05T21:18:52.478Z,97.90
2019-04-05T21:21:34.195Z,97.90
2019-04-05T21:24:16.330Z,97.90
2019-04-05T21:26:58.646Z,98.00
2019-04-05T21:29:40.560Z,97.80
2019-04-05T21:32:22.996Z,97.70
2019-04-05T21:35:05.113Z,97.80
2019-04-05T21:37:47.643Z,97.80
2019-04-05T21:40:29.818Z,97.90
2019-04-05T21:43:11.904Z,97.70
2019-04-05T21:45:54.309Z,97.50
2019-04-05T21:48:36.288Z,97.60
2019-04-05T21:51:18.667Z,97.90
2019-04-05T21:54:00.573Z,97.70
2019-04-05T21:56:42.604Z,97.50
2019-04-05T21:59:25.013Z,97.70
2019-04-05T22:02:07.364Z,97.70
2019-04-05T22:04:49.148Z,97.60
2019-04-05T22:07:31.634Z,97.60
2019-04-05T22:10:13.752Z,97.70
2019-04-05T22:12:55.978Z,97.70
2019-04-05T22:15:38.001Z,97.70
2019-04-05T22:18:20.151Z,97.50
2019-04-05T22:21:02.000Z,97.40
2019-04-05T22:23:43.819Z,97.40
2019-04-05T22:26:26.307Z,97.30
2019-04-05T22:29:08.758Z,97.20
2019-04-05T22:31:50.974Z,97.30
2019-04-05T22:34:33.118Z,97.30
2019-04-05T22:37:15.520Z,97.20
2019-04-05T22:39:58.142Z,97.00
2019-04-05T22:42:40.001Z,97.20
2019-04-05T22:45:22.348Z,97.50
2019-04-05T22:48:04.298Z,97.40
2019-04-05T22:50:46.781Z,97.20
2019-04-05T22:53:29.400Z,97.10
2019-04-05T22:56:11.232Z,97.20
2019-04-05T22:58:53.450Z,97.10
2019-04-05T23:01:35.692Z,97.10
2019-04-05T23:04:17.851Z,97.10
2019-04-05T23:07:00.113Z,97.20
2019-04-05T23:09:42.176Z,97.30
2019-04-05T23:12:24.738Z,97.20
2019-04-05T23:15:06.723Z,97.00
2019-04-05T23:17:48.517Z,97.00
2019-04-05T23:20:31.126Z,97.00
2019-04-05T23:23:12.952Z,97.10
2019-04-05T23:25:55.625Z,97.20
2019-04-05T23:28:37.334Z,97.10
2019-04-05T23:31:19.912Z,97.10
2019-04-05T23:34:01.938Z,97.40
2019-04-05T23:36:43.659Z,97.60
2019-04-05T23:39:25.619Z,97.50
2019-04-05T23:42:07.713Z,97.80
2019-04-05T23:44:49.671Z,97.90
2019-04-05T23:47:31.406Z,97.90
2019-04-05T23:50:13.387Z,98.10
2019-04-05T23:52:55.315Z,98.20
2019-04-05T23:55:37.832Z,98.40
2019-04-05T23:58:20.508Z,98.40
